Terminal Aerodrome Forecast
Issued by NWS Shreveport, LA

Home | Current Version | Previous Version | Text Only | Print | Product List | Glossary On
Versions: 1 2 3 4 5 6 7 8 9 10 11 12
000
FTUS44 KSHV 191100
TAFTXK
TAF
KTXK 191120Z 1912/2012 04006KT 4SM BR OVC003
     FM191400 05004KT 4SM -RA BR OVC005
     FM191600 05005KT 3SM -RA BR OVC005
     FM192200 05005KT 5SM BR OVC008
     FM200000 05004KT 5SM BR OVC010
     FM200600 03004KT 1SM BR OVC002=

USA.gov is the U.S. government's official web portal to all federal, state and local government web resources and services.